Aviosuperficie Il Picchio

IT-0054 · 皮埃蒙特, 意大利

罗盘
风向 的 风向 020° Aviosuperficie Il Picchio 18/36
风: 6 kt, 2 beaufort

6 kt

2 kt
改变
0 ft 1.000 2.000 3.000 4.000 5.000
Cloud Cloud Cloud Cloud Cloud Cloud
BKN 3.000
METAR LIMC 302120Z 02006KT 9999 -RA BKN030 15/13 Q1004 NOSIG

METAR Aviosuperficie Il Picchio - IT-0054

Aviosuperficie Il Picchio是,意大利中的小机场。 该机场位于纬度45,70848和经度8,59567。 该机场有一条跑道: 18/36. 这个机场没有ICAO代码,我们使用IT-0054作为参考。 机场在Milano FIR中。

该航空气象观测是针对Malpensa International Airport在2024年5月30日 23:20, 当地时间进行的。

机场观察

风向为020°,速度为6 kt。

可见度为10 km 或者更多。

有碎云在3.000 ft的高度。 破损或更高的上限为3.000 ft。

当前天气为光 雨。 温度和风寒是15 °C。 露点为13 °C,相对湿度为88%。 海平面上的气压为1004 hPa (QNH)。

白天

今天,太阳从05:40升起,在21:06降落。 这适用于Aviosuperficie Il Picchio,世界夏令时可能有所不同。 当地时间与世界标准时间之间的时差为+2 小时。 夏令时目前正在进行中。

公司介绍

我们没有关于这个机场的公司信息。

体会

到Vliegles.nl去找飞行课程,跳伞和其他飞行体验。 浏览页面,了解Aviosuperficie Il Picchio附近所有可用的活动。 你也可以使用搜索功能来寻找你所在地附近的特定飞行课程、跳伞或其他飞行体验。

跑道

Id 标题 侧风 逆风 侧风 %
18/36 183°-003° 2 kt 6 kt 29 %

逆风成分最大的方向会被突出显示,并用于横风计算。 这并不一定意味着这个方向在使用。

乌云

3.000 ft BKN 碎云

温度 & 天气

天气 光 雨
温度 15 °C
露点 13 °C
相对湿度 88%
Kp-index 2 (0-9)

白天

日出
05:40 (5:45)
中午
13:22
日落
21:05

小工具

你想在你的网站上有一个关于Aviosuperficie Il Picchio的当前航空天气(METAR)的小部件吗?

显示HTML代码
报告变更